sensor_id;sensor_type;location;lat;lon;timestamp;temperature;humidity
69770;SHT30;57282;52.514;13.458;2023-03-23T00:01:29;20.63;54.47
69770;SHT30;57282;52.514;13.458;2023-03-23T00:03:58;20.77;54.28
69770;SHT30;57282;52.514;13.458;2023-03-23T00:06:27;20.80;54.14
69770;SHT30;57282;52.514;13.458;2023-03-23T00:08:58;20.90;54.09
69770;SHT30;57282;52.514;13.458;2023-03-23T00:11:30;20.91;53.98
69770;SHT30;57282;52.514;13.458;2023-03-23T00:14:00;20.88;54.02
69770;SHT30;57282;52.514;13.458;2023-03-23T00:16:29;20.90;54.00
69770;SHT30;57282;52.514;13.458;2023-03-23T00:18:59;20.91;53.95
69770;SHT30;57282;52.514;13.458;2023-03-23T00:21:27;20.91;54.01
69770;SHT30;57282;52.514;13.458;2023-03-23T00:24:01;20.92;54.01
69770;SHT30;57282;52.514;13.458;2023-03-23T00:26:28;20.94;54.06
69770;SHT30;57282;52.514;13.458;2023-03-23T00:29:00;20.95;54.07
69770;SHT30;57282;52.514;13.458;2023-03-23T00:31:28;20.95;54.06
69770;SHT30;57282;52.514;13.458;2023-03-23T00:33:58;20.95;54.13
69770;SHT30;57282;52.514;13.458;2023-03-23T00:36:27;20.92;54.19
69770;SHT30;57282;52.514;13.458;2023-03-23T00:38:54;20.92;54.22
69770;SHT30;57282;52.514;13.458;2023-03-23T00:41:23;20.91;54.24
69770;SHT30;57282;52.514;13.458;2023-03-23T00:43:52;20.91;54.35
69770;SHT30;57282;52.514;13.458;2023-03-23T00:46:20;20.90;54.38
69770;SHT30;57282;52.514;13.458;2023-03-23T00:48:48;20.88;54.37
69770;SHT30;57282;52.514;13.458;2023-03-23T00:51:16;20.90;54.44
69770;SHT30;57282;52.514;13.458;2023-03-23T00:53:43;20.90;54.44
69770;SHT30;57282;52.514;13.458;2023-03-23T00:56:10;20.90;54.51
69770;SHT30;57282;52.514;13.458;2023-03-23T00:58:38;20.90;54.62
69770;SHT30;57282;52.514;13.458;2023-03-23T01:01:05;20.90;54.68
69770;SHT30;57282;52.514;13.458;2023-03-23T01:03:34;20.88;54.69
69770;SHT30;57282;52.514;13.458;2023-03-23T01:06:05;20.88;54.74
69770;SHT30;57282;52.514;13.458;2023-03-23T01:08:33;20.88;54.73
69770;SHT30;57282;52.514;13.458;2023-03-23T01:11:04;20.88;54.75
69770;SHT30;57282;52.514;13.458;2023-03-23T01:13:30;20.85;54.81
69770;SHT30;57282;52.514;13.458;2023-03-23T01:15:57;20.87;54.85
69770;SHT30;57282;52.514;13.458;2023-03-23T01:18:25;20.87;54.82
69770;SHT30;57282;52.514;13.458;2023-03-23T01:20:53;20.87;54.92
69770;SHT30;57282;52.514;13.458;2023-03-23T01:23:20;20.85;54.99
69770;SHT30;57282;52.514;13.458;2023-03-23T01:25:47;20.84;55.09
69770;SHT30;57282;52.514;13.458;2023-03-23T01:28:14;20.87;55.09
69770;SHT30;57282;52.514;13.458;2023-03-23T01:30:41;20.85;55.09
69770;SHT30;57282;52.514;13.458;2023-03-23T01:33:08;20.84;55.19
69770;SHT30;57282;52.514;13.458;2023-03-23T01:35:37;20.84;55.22
69770;SHT30;57282;52.514;13.458;2023-03-23T01:38:06;20.83;55.34
69770;SHT30;57282;52.514;13.458;2023-03-23T01:40:32;20.83;55.45
69770;SHT30;57282;52.514;13.458;2023-03-23T01:43:01;20.84;55.45
69770;SHT30;57282;52.514;13.458;2023-03-23T01:45:30;20.83;55.50
69770;SHT30;57282;52.514;13.458;2023-03-23T01:48:09;20.83;55.56
69770;SHT30;57282;52.514;13.458;2023-03-23T01:50:47;20.83;55.67
69770;SHT30;57282;52.514;13.458;2023-03-23T01:53:17;20.84;55.72
69770;SHT30;57282;52.514;13.458;2023-03-23T01:55:46;20.83;55.72
69770;SHT30;57282;52.514;13.458;2023-03-23T01:58:17;20.84;55.90
69770;SHT30;57282;52.514;13.458;2023-03-23T02:00:44;20.80;55.94
69770;SHT30;57282;52.514;13.458;2023-03-23T02:03:14;20.81;55.91
69770;SHT30;57282;52.514;13.458;2023-03-23T02:05:42;20.80;55.92
69770;SHT30;57282;52.514;13.458;2023-03-23T02:08:11;20.84;55.90
69770;SHT30;57282;52.514;13.458;2023-03-23T02:10:40;20.84;56.00
69770;SHT30;57282;52.514;13.458;2023-03-23T02:13:09;20.81;56.00
69770;SHT30;57282;52.514;13.458;2023-03-23T02:15:47;20.81;56.05
69770;SHT30;57282;52.514;13.458;2023-03-23T02:18:32;20.81;56.11
69770;SHT30;57282;52.514;13.458;2023-03-23T02:21:27;20.80;56.24
69770;SHT30;57282;52.514;13.458;2023-03-23T02:24:37;20.81;56.30
69770;SHT30;57282;52.514;13.458;2023-03-23T02:27:12;20.79;56.28
69770;SHT30;57282;52.514;13.458;2023-03-23T02:35:42;20.81;56.44
69770;SHT30;57282;52.514;13.458;2023-03-23T02:38:14;20.80;56.39
69770;SHT30;57282;52.514;13.458;2023-03-23T02:40:45;20.80;56.43
69770;SHT30;57282;52.514;13.458;2023-03-23T02:43:17;20.80;56.55
69770;SHT30;57282;52.514;13.458;2023-03-23T02:45:46;20.79;56.51
69770;SHT30;57282;52.514;13.458;2023-03-23T02:48:15;20.80;56.56
69770;SHT30;57282;52.514;13.458;2023-03-23T02:50:49;20.79;56.71
69770;SHT30;57282;52.514;13.458;2023-03-23T02:53:20;20.79;56.59
69770;SHT30;57282;52.514;13.458;2023-03-23T02:55:48;20.80;56.63
69770;SHT30;57282;52.514;13.458;2023-03-23T02:58:15;20.80;56.67
69770;SHT30;57282;52.514;13.458;2023-03-23T03:00:45;20.79;56.67
69770;SHT30;57282;52.514;13.458;2023-03-23T03:03:16;20.77;56.74
69770;SHT30;57282;52.514;13.458;2023-03-23T03:05:56;20.73;56.76
69770;SHT30;57282;52.514;13.458;2023-03-23T03:08:29;20.79;56.74
69770;SHT30;57282;52.514;13.458;2023-03-23T03:11:00;20.79;56.70
69770;SHT30;57282;52.514;13.458;2023-03-23T03:13:36;20.79;56.82
69770;SHT30;57282;52.514;13.458;2023-03-23T03:16:12;20.77;56.81
69770;SHT30;57282;52.514;13.458;2023-03-23T03:18:45;20.79;56.84
69770;SHT30;57282;52.514;13.458;2023-03-23T03:21:16;20.79;56.85
69770;SHT30;57282;52.514;13.458;2023-03-23T03:23:47;20.79;56.89
69770;SHT30;57282;52.514;13.458;2023-03-23T03:26:16;20.77;56.95
69770;SHT30;57282;52.514;13.458;2023-03-23T03:28:47;20.76;56.99
69770;SHT30;57282;52.514;13.458;2023-03-23T03:31:16;20.79;56.97
69770;SHT30;57282;52.514;13.458;2023-03-23T03:33:43;20.74;57.09
69770;SHT30;57282;52.514;13.458;2023-03-23T03:36:18;20.77;57.10
69770;SHT30;57282;52.514;13.458;2023-03-23T03:38:48;20.74;57.10
69770;SHT30;57282;52.514;13.458;2023-03-23T03:41:15;20.76;57.09
69770;SHT30;57282;52.514;13.458;2023-03-23T03:43:42;20.79;57.13
69770;SHT30;57282;52.514;13.458;2023-03-23T03:46:09;20.79;57.06
69770;SHT30;57282;52.514;13.458;2023-03-23T03:48:36;20.77;57.10
69770;SHT30;57282;52.514;13.458;2023-03-23T03:51:03;20.79;57.13
69770;SHT30;57282;52.514;13.458;2023-03-23T03:53:31;20.77;57.16
69770;SHT30;57282;52.514;13.458;2023-03-23T03:55:58;20.77;57.26
69770;SHT30;57282;52.514;13.458;2023-03-23T03:58:27;20.77;57.27
69770;SHT30;57282;52.514;13.458;2023-03-23T04:00:57;20.77;57.29
69770;SHT30;57282;52.514;13.458;2023-03-23T04:03:25;20.77;57.29
69770;SHT30;57282;52.514;13.458;2023-03-23T04:05:52;20.79;57.32
69770;SHT30;57282;52.514;13.458;2023-03-23T04:08:21;20.80;57.33
69770;SHT30;57282;52.514;13.458;2023-03-23T04:10:49;20.74;57.32
69770;SHT30;57282;52.514;13.458;2023-03-23T04:13:17;20.77;57.37
69770;SHT30;57282;52.514;13.458;2023-03-23T04:15:44;20.77;57.39
69770;SHT30;57282;52.514;13.458;2023-03-23T04:18:11;20.74;57.40
69770;SHT30;57282;52.514;13.458;2023-03-23T04:20:41;20.74;57.48
69770;SHT30;57282;52.514;13.458;2023-03-23T04:23:08;20.77;57.46
69770;SHT30;57282;52.514;13.458;2023-03-23T04:25:35;20.77;57.44
69770;SHT30;57282;52.514;13.458;2023-03-23T04:28:03;20.77;57.47
69770;SHT30;57282;52.514;13.458;2023-03-23T04:30:30;20.73;57.48
69770;SHT30;57282;52.514;13.458;2023-03-23T04:32:57;20.77;57.44
69770;SHT30;57282;52.514;13.458;2023-03-23T04:35:26;20.76;57.43
69770;SHT30;57282;52.514;13.458;2023-03-23T04:37:55;20.76;57.47
69770;SHT30;57282;52.514;13.458;2023-03-23T04:40:22;20.76;57.46
69770;SHT30;57282;52.514;13.458;2023-03-23T04:42:49;20.76;57.40
69770;SHT30;57282;52.514;13.458;2023-03-23T04:45:21;20.76;57.40
69770;SHT30;57282;52.514;13.458;2023-03-23T04:47:49;20.74;57.46
69770;SHT30;57282;52.514;13.458;2023-03-23T04:50:24;20.74;57.46
69770;SHT30;57282;52.514;13.458;2023-03-23T04:52:51;20.74;57.47
69770;SHT30;57282;52.514;13.458;2023-03-23T04:55:20;20.74;57.47
69770;SHT30;57282;52.514;13.458;2023-03-23T04:57:47;20.74;57.47
69770;SHT30;57282;52.514;13.458;2023-03-23T05:00:14;20.74;57.51
69770;SHT30;57282;52.514;13.458;2023-03-23T05:02:44;20.76;57.46
69770;SHT30;57282;52.514;13.458;2023-03-23T05:05:13;20.74;57.45
69770;SHT30;57282;52.514;13.458;2023-03-23T05:07:40;20.74;57.47
69770;SHT30;57282;52.514;13.458;2023-03-23T05:10:09;20.74;57.41
69770;SHT30;57282;52.514;13.458;2023-03-23T05:12:36;20.76;57.45
69770;SHT30;57282;52.514;13.458;2023-03-23T05:15:04;20.73;57.47
69770;SHT30;57282;52.514;13.458;2023-03-23T05:17:32;20.76;57.38
69770;SHT30;57282;52.514;13.458;2023-03-23T05:20:01;20.73;57.44
69770;SHT30;57282;52.514;13.458;2023-03-23T05:22:30;20.74;57.45
69770;SHT30;57282;52.514;13.458;2023-03-23T05:24:57;20.74;57.51
69770;SHT30;57282;52.514;13.458;2023-03-23T05:27:24;20.74;57.51
69770;SHT30;57282;52.514;13.458;2023-03-23T05:30:01;20.73;57.56
69770;SHT30;57282;52.514;13.458;2023-03-23T05:32:41;20.73;57.59
69770;SHT30;57282;52.514;13.458;2023-03-23T05:35:10;20.71;57.59
69770;SHT30;57282;52.514;13.458;2023-03-23T05:37:38;20.73;57.59
69770;SHT30;57282;52.514;13.458;2023-03-23T05:40:06;20.71;57.63
69770;SHT30;57282;52.514;13.458;2023-03-23T05:42:33;20.73;57.64
69770;SHT30;57282;52.514;13.458;2023-03-23T05:45:01;20.71;57.67
69770;SHT30;57282;52.514;13.458;2023-03-23T05:47:28;20.71;57.69
69770;SHT30;57282;52.514;13.458;2023-03-23T05:49:55;20.73;57.67
69770;SHT30;57282;52.514;13.458;2023-03-23T05:52:24;20.73;57.77
69770;SHT30;57282;52.514;13.458;2023-03-23T05:54:51;20.71;57.78
69770;SHT30;57282;52.514;13.458;2023-03-23T05:57:19;20.71;57.74
69770;SHT30;57282;52.514;13.458;2023-03-23T05:59:47;20.71;57.79
69770;SHT30;57282;52.514;13.458;2023-03-23T06:02:14;20.74;57.82
69770;SHT30;57282;52.514;13.458;2023-03-23T06:04:41;20.73;57.83
69770;SHT30;57282;52.514;13.458;2023-03-23T06:07:08;20.73;57.83
69770;SHT30;57282;52.514;13.458;2023-03-23T06:09:39;20.73;57.81
69770;SHT30;57282;52.514;13.458;2023-03-23T06:12:07;20.70;57.94
69770;SHT30;57282;52.514;13.458;2023-03-23T06:14:35;20.74;57.86
69770;SHT30;57282;52.514;13.458;2023-03-23T06:17:02;20.73;57.92
69770;SHT30;57282;52.514;13.458;2023-03-23T06:19:28;20.71;57.91
69770;SHT30;57282;52.514;13.458;2023-03-23T06:21:55;20.71;57.95
69770;SHT30;57282;52.514;13.458;2023-03-23T06:24:22;20.71;57.93
69770;SHT30;57282;52.514;13.458;2023-03-23T06:26:50;20.71;57.97
69770;SHT30;57282;52.514;13.458;2023-03-23T06:29:17;20.71;57.91
69770;SHT30;57282;52.514;13.458;2023-03-23T06:31:46;20.73;57.93
69770;SHT30;57282;52.514;13.458;2023-03-23T06:34:14;20.71;57.97
69770;SHT30;57282;52.514;13.458;2023-03-23T06:36:42;20.73;57.95
69770;SHT30;57282;52.514;13.458;2023-03-23T06:39:10;20.73;57.93
69770;SHT30;57282;52.514;13.458;2023-03-23T06:41:38;20.70;57.95
69770;SHT30;57282;52.514;13.458;2023-03-23T06:44:06;20.71;57.94
69770;SHT30;57282;52.514;13.458;2023-03-23T06:46:34;20.73;57.97
69770;SHT30;57282;52.514;13.458;2023-03-23T06:49:00;20.70;57.99
69770;SHT30;57282;52.514;13.458;2023-03-23T06:51:27;20.71;58.02
69770;SHT30;57282;52.514;13.458;2023-03-23T06:53:54;20.73;58.10
69770;SHT30;57282;52.514;13.458;2023-03-23T06:56:22;20.73;58.12
69770;SHT30;57282;52.514;13.458;2023-03-23T06:58:49;19.82;56.18
69770;SHT30;57282;52.514;13.458;2023-03-23T07:01:17;18.09;59.96
69770;SHT30;57282;52.514;13.458;2023-03-23T07:03:45;17.42;61.38
69770;SHT30;57282;52.514;13.458;2023-03-23T07:06:12;16.90;62.92
69770;SHT30;57282;52.514;13.458;2023-03-23T07:08:39;16.67;63.62
69770;SHT30;57282;52.514;13.458;2023-03-23T07:11:05;16.70;63.78
69770;SHT30;57282;52.514;13.458;2023-03-23T07:13:33;16.74;62.93
69770;SHT30;57282;52.514;13.458;2023-03-23T07:16:00;16.83;62.89
69770;SHT30;57282;52.514;13.458;2023-03-23T07:18:28;16.72;63.29
69770;SHT30;57282;52.514;13.458;2023-03-23T07:20:55;16.66;63.57
69770;SHT30;57282;52.514;13.458;2023-03-23T07:23:22;16.56;63.78
69770;SHT30;57282;52.514;13.458;2023-03-23T07:25:48;16.81;62.96
69770;SHT30;57282;52.514;13.458;2023-03-23T07:28:15;16.93;62.57
69770;SHT30;57282;52.514;13.458;2023-03-23T07:30:42;16.88;62.89
69770;SHT30;57282;52.514;13.458;2023-03-23T07:33:10;16.81;63.01
69770;SHT30;57282;52.514;13.458;2023-03-23T07:35:38;17.07;62.55
69770;SHT30;57282;52.514;13.458;2023-03-23T07:38:06;17.65;61.13
69770;SHT30;57282;52.514;13.458;2023-03-23T07:40:34;18.18;60.21
69770;SHT30;57282;52.514;13.458;2023-03-23T07:43:02;18.65;59.32
69770;SHT30;57282;52.514;13.458;2023-03-23T07:45:30;19.06;58.29
69770;SHT30;57282;52.514;13.458;2023-03-23T07:47:57;19.24;57.87
69770;SHT30;57282;52.514;13.458;2023-03-23T07:50:25;19.36;57.63
69770;SHT30;57282;52.514;13.458;2023-03-23T07:52:56;19.44;57.52
69770;SHT30;57282;52.514;13.458;2023-03-23T07:55:24;19.53;57.43
69770;SHT30;57282;52.514;13.458;2023-03-23T07:57:53;19.58;57.36
69770;SHT30;57282;52.514;13.458;2023-03-23T08:00:21;19.65;57.23
69770;SHT30;57282;52.514;13.458;2023-03-23T08:02:50;19.70;57.17
69770;SHT30;57282;52.514;13.458;2023-03-23T08:05:18;19.75;57.06
69770;SHT30;57282;52.514;13.458;2023-03-23T08:07:46;19.79;57.03
69770;SHT30;57282;52.514;13.458;2023-03-23T08:10:16;19.85;57.02
69770;SHT30;57282;52.514;13.458;2023-03-23T08:12:44;19.89;56.97
69770;SHT30;57282;52.514;13.458;2023-03-23T08:15:14;19.89;56.93
69770;SHT30;57282;52.514;13.458;2023-03-23T08:17:41;19.98;56.87
69770;SHT30;57282;52.514;13.458;2023-03-23T08:20:09;19.98;56.88
69770;SHT30;57282;52.514;13.458;2023-03-23T08:22:38;20.11;56.75
69770;SHT30;57282;52.514;13.458;2023-03-23T08:25:08;20.36;56.21
69770;SHT30;57282;52.514;13.458;2023-03-23T08:27:37;20.37;56.01
69770;SHT30;57282;52.514;13.458;2023-03-23T08:30:11;20.50;55.84
69770;SHT30;57282;52.514;13.458;2023-03-23T08:32:39;20.47;55.87
69770;SHT30;57282;52.514;13.458;2023-03-23T08:35:06;20.47;55.96
69770;SHT30;57282;52.514;13.458;2023-03-23T08:37:34;20.42;56.04
69770;SHT30;57282;52.514;13.458;2023-03-23T08:40:02;20.36;56.21
69770;SHT30;57282;52.514;13.458;2023-03-23T08:42:34;20.36;56.25
69770;SHT30;57282;52.514;13.458;2023-03-23T08:45:03;20.32;56.43
69770;SHT30;57282;52.514;13.458;2023-03-23T08:47:30;20.32;56.49
69770;SHT30;57282;52.514;13.458;2023-03-23T08:49:57;20.34;56.51
69770;SHT30;57282;52.514;13.458;2023-03-23T08:52:24;20.36;56.56
69770;SHT30;57282;52.514;13.458;2023-03-23T08:54:51;20.40;56.52
69770;SHT30;57282;52.514;13.458;2023-03-23T08:57:17;20.43;56.55
69770;SHT30;57282;52.514;13.458;2023-03-23T08:59:44;20.43;56.59
69770;SHT30;57282;52.514;13.458;2023-03-23T09:02:12;20.49;56.60
69770;SHT30;57282;52.514;13.458;2023-03-23T09:04:40;20.46;56.57
69770;SHT30;57282;52.514;13.458;2023-03-23T09:07:08;20.49;56.57
69770;SHT30;57282;52.514;13.458;2023-03-23T09:09:36;20.49;56.58
69770;SHT30;57282;52.514;13.458;2023-03-23T09:12:05;20.52;56.58
69770;SHT30;57282;52.514;13.458;2023-03-23T09:14:31;20.61;56.39
69770;SHT30;57282;52.514;13.458;2023-03-23T09:16:58;20.61;56.32
69770;SHT30;57282;52.514;13.458;2023-03-23T09:19:27;20.60;56.38
69770;SHT30;57282;52.514;13.458;2023-03-23T09:21:54;20.60;56.51
69770;SHT30;57282;52.514;13.458;2023-03-23T09:24:21;20.61;56.44
69770;SHT30;57282;52.514;13.458;2023-03-23T09:26:48;20.61;56.42
69770;SHT30;57282;52.514;13.458;2023-03-23T09:29:15;20.61;56.45
69770;SHT30;57282;52.514;13.458;2023-03-23T09:31:44;20.64;56.40
69770;SHT30;57282;52.514;13.458;2023-03-23T09:34:12;20.64;56.47
69770;SHT30;57282;52.514;13.458;2023-03-23T09:36:42;20.64;56.43
69770;SHT30;57282;52.514;13.458;2023-03-23T09:39:10;20.67;56.42
69770;SHT30;57282;52.514;13.458;2023-03-23T09:41:48;20.64;56.43
69770;SHT30;57282;52.514;13.458;2023-03-23T09:44:24;20.67;56.37
69770;SHT30;57282;52.514;13.458;2023-03-23T09:46:58;20.69;56.36
69770;SHT30;57282;52.514;13.458;2023-03-23T09:49:30;20.71;56.41
69770;SHT30;57282;52.514;13.458;2023-03-23T09:52:04;20.74;56.33
69770;SHT30;57282;52.514;13.458;2023-03-23T09:54:35;20.76;56.41
69770;SHT30;57282;52.514;13.458;2023-03-23T09:57:03;20.77;56.36
69770;SHT30;57282;52.514;13.458;2023-03-23T09:59:36;20.77;56.41
69770;SHT30;57282;52.514;13.458;2023-03-23T10:02:12;20.84;56.44
69770;SHT30;57282;52.514;13.458;2023-03-23T10:04:44;20.87;56.28
69770;SHT30;57282;52.514;13.458;2023-03-23T10:07:15;20.88;56.27
69770;SHT30;57282;52.514;13.458;2023-03-23T10:09:44;20.95;56.28
69770;SHT30;57282;52.514;13.458;2023-03-23T10:12:23;21.07;56.15
69770;SHT30;57282;52.514;13.458;2023-03-23T10:15:11;21.02;56.10
69770;SHT30;57282;52.514;13.458;2023-03-23T10:17:44;21.04;55.75
69770;SHT30;57282;52.514;13.458;2023-03-23T10:20:32;21.09;56.07
69770;SHT30;57282;52.514;13.458;2023-03-23T10:23:10;21.14;56.08
69770;SHT30;57282;52.514;13.458;2023-03-23T10:25:41;21.25;55.55
69770;SHT30;57282;52.514;13.458;2023-03-23T10:28:10;21.22;55.59
69770;SHT30;57282;52.514;13.458;2023-03-23T10:30:39;21.18;55.73
69770;SHT30;57282;52.514;13.458;2023-03-23T10:33:13;21.15;55.92
69770;SHT30;57282;52.514;13.458;2023-03-23T10:35:44;21.09;55.95
69770;SHT30;57282;52.514;13.458;2023-03-23T10:38:18;21.17;55.47
69770;SHT30;57282;52.514;13.458;2023-03-23T10:40:50;21.14;55.83
69770;SHT30;57282;52.514;13.458;2023-03-23T10:43:17;21.14;55.90
69770;SHT30;57282;52.514;13.458;2023-03-23T10:45:46;21.17;55.99
69770;SHT30;57282;52.514;13.458;2023-03-23T10:48:17;21.21;55.62
69770;SHT30;57282;52.514;13.458;2023-03-23T10:50:48;21.18;55.61
69770;SHT30;57282;52.514;13.458;2023-03-23T10:53:20;21.14;55.60
69770;SHT30;57282;52.514;13.458;2023-03-23T10:55:47;21.18;55.63
69770;SHT30;57282;52.514;13.458;2023-03-23T10:58:23;21.15;55.62
69770;SHT30;57282;52.514;13.458;2023-03-23T11:00:50;21.15;55.64
69770;SHT30;57282;52.514;13.458;2023-03-23T11:03:25;21.14;55.58
69770;SHT30;57282;52.514;13.458;2023-03-23T11:05:57;21.12;55.64
69770;SHT30;57282;52.514;13.458;2023-03-23T11:08:27;21.14;55.71
69770;SHT30;57282;52.514;13.458;2023-03-23T11:10:58;21.17;55.69
69770;SHT30;57282;52.514;13.458;2023-03-23T11:13:29;21.12;55.71
69770;SHT30;57282;52.514;13.458;2023-03-23T11:16:00;21.15;55.35
69770;SHT30;57282;52.514;13.458;2023-03-23T11:18:35;21.11;55.68
69770;SHT30;57282;52.514;13.458;2023-03-23T11:21:03;21.14;55.74
69770;SHT30;57282;52.514;13.458;2023-03-23T11:23:37;21.09;55.84
69770;SHT30;57282;52.514;13.458;2023-03-23T11:26:11;21.18;55.33
69770;SHT30;57282;52.514;13.458;2023-03-23T11:28:43;21.15;55.80
69770;SHT30;57282;52.514;13.458;2023-03-23T11:31:12;21.18;54.71
69770;SHT30;57282;52.514;13.458;2023-03-23T11:33:47;21.14;55.83
69770;SHT30;57282;52.514;13.458;2023-03-23T11:36:15;21.09;56.04
69770;SHT30;57282;52.514;13.458;2023-03-23T11:38:44;21.05;56.43
69770;SHT30;57282;52.514;13.458;2023-03-23T11:41:12;21.08;56.47
69770;SHT30;57282;52.514;13.458;2023-03-23T11:43:41;21.11;56.60
69770;SHT30;57282;52.514;13.458;2023-03-23T11:46:18;21.21;56.32
69770;SHT30;57282;52.514;13.458;2023-03-23T11:48:52;21.17;55.81
69770;SHT30;57282;52.514;13.458;2023-03-23T11:51:26;21.18;55.18
69770;SHT30;57282;52.514;13.458;2023-03-23T11:54:02;21.17;55.80
69770;SHT30;57282;52.514;13.458;2023-03-23T11:56:34;21.19;55.98
69770;SHT30;57282;52.514;13.458;2023-03-23T11:59:02;21.22;54.83
69770;SHT30;57282;52.514;13.458;2023-03-23T12:01:44;21.25;56.59
69770;SHT30;57282;52.514;13.458;2023-03-23T12:07:14;21.32;56.22
69770;SHT30;57282;52.514;13.458;2023-03-23T12:09:48;21.29;56.33
69770;SHT30;57282;52.514;13.458;2023-03-23T12:12:21;21.35;55.88
69770;SHT30;57282;52.514;13.458;2023-03-23T12:14:58;21.35;55.87
69770;SHT30;57282;52.514;13.458;2023-03-23T12:17:33;21.37;55.43
69770;SHT30;57282;52.514;13.458;2023-03-23T12:20:16;21.42;55.11
69770;SHT30;57282;52.514;13.458;2023-03-23T12:22:55;21.42;55.90
69770;SHT30;57282;52.514;13.458;2023-03-23T12:25:50;21.39;56.05
69770;SHT30;57282;52.514;13.458;2023-03-23T12:28:25;21.38;55.99
69770;SHT30;57282;52.514;13.458;2023-03-23T12:30:59;21.29;53.91
69770;SHT30;57282;52.514;13.458;2023-03-23T12:33:37;21.02;54.04
69770;SHT30;57282;52.514;13.458;2023-03-23T12:36:19;20.83;53.80
69770;SHT30;57282;52.514;13.458;2023-03-23T12:42:14;21.08;56.19
69770;SHT30;57282;52.514;13.458;2023-03-23T12:44:46;21.15;55.93
69770;SHT30;57282;52.514;13.458;2023-03-23T12:47:37;21.25;55.68
69770;SHT30;57282;52.514;13.458;2023-03-23T12:50:12;21.31;55.70
69770;SHT30;57282;52.514;13.458;2023-03-23T12:52:47;21.38;55.91
69770;SHT30;57282;52.514;13.458;2023-03-23T12:55:21;21.45;55.72
69770;SHT30;57282;52.514;13.458;2023-03-23T12:57:54;21.38;55.61
69770;SHT30;57282;52.514;13.458;2023-03-23T13:00:27;21.42;55.22
69770;SHT30;57282;52.514;13.458;2023-03-23T13:02:59;21.37;55.60
69770;SHT30;57282;52.514;13.458;2023-03-23T13:05:34;21.39;55.62
69770;SHT30;57282;52.514;13.458;2023-03-23T13:08:06;21.39;55.70
69770;SHT30;57282;52.514;13.458;2023-03-23T13:10:39;21.39;55.63
69770;SHT30;57282;52.514;13.458;2023-03-23T13:13:13;21.37;55.72
69770;SHT30;57282;52.514;13.458;2023-03-23T13:15:48;21.35;55.77
69770;SHT30;57282;52.514;13.458;2023-03-23T13:21:10;21.41;54.40
69770;SHT30;57282;52.514;13.458;2023-03-23T13:23:41;21.49;54.07
69770;SHT30;57282;52.514;13.458;2023-03-23T13:26:12;21.45;55.81
69770;SHT30;57282;52.514;13.458;2023-03-23T13:28:54;21.42;56.00
69770;SHT30;57282;52.514;13.458;2023-03-23T13:31:23;21.41;56.07
69770;SHT30;57282;52.514;13.458;2023-03-23T13:33:58;21.41;56.09
69770;SHT30;57282;52.514;13.458;2023-03-23T13:36:30;21.42;56.05
69770;SHT30;57282;52.514;13.458;2023-03-23T13:38:59;21.45;56.02
69770;SHT30;57282;52.514;13.458;2023-03-23T13:41:28;21.42;56.13
69770;SHT30;57282;52.514;13.458;2023-03-23T13:44:16;21.45;56.19
69770;SHT30;57282;52.514;13.458;2023-03-23T13:46:54;21.42;56.23
69770;SHT30;57282;52.514;13.458;2023-03-23T13:49:22;21.46;54.99
69770;SHT30;57282;52.514;13.458;2023-03-23T13:52:14;21.46;56.14
69770;SHT30;57282;52.514;13.458;2023-03-23T13:54:44;21.45;56.24
69770;SHT30;57282;52.514;13.458;2023-03-23T13:57:36;21.48;56.17
69770;SHT30;57282;52.514;13.458;2023-03-23T14:00:44;21.46;55.85
69770;SHT30;57282;52.514;13.458;2023-03-23T14:03:14;21.48;55.76
69770;SHT30;57282;52.514;13.458;2023-03-23T14:05:43;21.48;56.04
69770;SHT30;57282;52.514;13.458;2023-03-23T14:08:13;21.42;56.19
69770;SHT30;57282;52.514;13.458;2023-03-23T14:10:43;21.43;56.15
69770;SHT30;57282;52.514;13.458;2023-03-23T14:13:16;21.46;56.07
69770;SHT30;57282;52.514;13.458;2023-03-23T14:15:55;21.52;55.99
69770;SHT30;57282;52.514;13.458;2023-03-23T14:18:26;21.43;56.34
69770;SHT30;57282;52.514;13.458;2023-03-23T14:20:55;21.48;55.83
69770;SHT30;57282;52.514;13.458;2023-03-23T14:23:23;21.55;56.06
69770;SHT30;57282;52.514;13.458;2023-03-23T14:25:59;21.52;56.10
69770;SHT30;57282;52.514;13.458;2023-03-23T14:28:31;21.58;56.15
69770;SHT30;57282;52.514;13.458;2023-03-23T14:31:00;21.60;55.97
69770;SHT30;57282;52.514;13.458;2023-03-23T14:33:27;21.56;55.61
69770;SHT30;57282;52.514;13.458;2023-03-23T14:35:57;21.58;55.58
69770;SHT30;57282;52.514;13.458;2023-03-23T14:38:25;21.55;54.10
69770;SHT30;57282;52.514;13.458;2023-03-23T14:41:01;21.59;54.99
69770;SHT30;57282;52.514;13.458;2023-03-23T14:43:29;21.62;55.10
69770;SHT30;57282;52.514;13.458;2023-03-23T14:46:00;21.60;55.24
69770;SHT30;57282;52.514;13.458;2023-03-23T14:48:28;21.58;55.47
69770;SHT30;57282;52.514;13.458;2023-03-23T14:50:57;21.63;55.31
69770;SHT30;57282;52.514;13.458;2023-03-23T14:53:31;21.60;54.22
69770;SHT30;57282;52.514;13.458;2023-03-23T14:56:00;21.55;55.27
69770;SHT30;57282;52.514;13.458;2023-03-23T14:58:31;21.59;55.22
69770;SHT30;57282;52.514;13.458;2023-03-23T15:01:01;21.63;55.88
69770;SHT30;57282;52.514;13.458;2023-03-23T15:03:33;21.65;55.36
69770;SHT30;57282;52.514;13.458;2023-03-23T15:06:04;21.67;54.48
69770;SHT30;57282;52.514;13.458;2023-03-23T15:08:33;21.69;54.95
69770;SHT30;57282;52.514;13.458;2023-03-23T15:11:07;21.69;53.93
69770;SHT30;57282;52.514;13.458;2023-03-23T15:13:36;21.70;54.24
69770;SHT30;57282;52.514;13.458;2023-03-23T15:16:14;21.73;54.72
69770;SHT30;57282;52.514;13.458;2023-03-23T15:18:49;21.69;54.37
69770;SHT30;57282;52.514;13.458;2023-03-23T15:21:24;21.65;54.13
69770;SHT30;57282;52.514;13.458;2023-03-23T15:23:53;21.65;54.24
69770;SHT30;57282;52.514;13.458;2023-03-23T15:26:32;21.66;54.28
69770;SHT30;57282;52.514;13.458;2023-03-23T15:29:15;21.65;54.07
69770;SHT30;57282;52.514;13.458;2023-03-23T15:31:46;21.67;54.31
69770;SHT30;57282;52.514;13.458;2023-03-23T15:34:29;21.63;54.12
69770;SHT30;57282;52.514;13.458;2023-03-23T15:36:59;21.66;54.17
69770;SHT30;57282;52.514;13.458;2023-03-23T15:39:27;21.67;54.26
69770;SHT30;57282;52.514;13.458;2023-03-23T15:41:55;21.67;55.16
69770;SHT30;57282;52.514;13.458;2023-03-23T15:44:27;21.73;54.30
69770;SHT30;57282;52.514;13.458;2023-03-23T15:47:10;21.73;54.41
69770;SHT30;57282;52.514;13.458;2023-03-23T15:49:39;21.66;54.14
69770;SHT30;57282;52.514;13.458;2023-03-23T15:52:09;21.62;54.32